Icatu, Brazil
Current Conditions -  °F | °C
As of 1:00 PM on Thursday 30 Oct 2014 (Local Time) from SBSL Reporting Station
Scattered Clouds Scattered Clouds  
Wind Chill: 90°   Ceiling: Unl
Heat Index: 90°   Visibility: 6mi
Dew Point: 63°   Wind: 15mph
Humidity: 40%   Direction: 60°ENE
Pressure: 29.83"   Gusts: NA
Location:  2.78°S, 44.07°W
Report Text: SBSL 301600Z 06013KT 9999 SCT020 32/17 Q1010
Loading
Personal Weather Stations






























Interactive Weather Map
Tropical Storm Tracking
New forecast layout! Learn more

10-Day Weather Forecast

Advertisements
Track Severe Weather on mobile